createdAt,value
2019-05-05T00:00:04.871Z,4.00
2019-05-05T00:03:24.901Z,4.20
2019-05-05T00:06:28.531Z,4.40
2019-05-05T00:09:34.755Z,4.57
2019-05-05T00:12:50.861Z,4.80
2019-05-05T00:16:12.764Z,4.53
2019-05-05T00:19:29.838Z,4.90
2019-05-05T00:22:24.550Z,5.10
2019-05-05T00:25:28.455Z,5.20
2019-05-05T00:28:32.324Z,5.50
2019-05-05T00:31:36.276Z,5.87
2019-05-05T00:34:40.607Z,5.80
2019-05-05T00:37:45.127Z,6.00
2019-05-05T00:40:49.041Z,6.60
2019-05-05T00:43:55.212Z,6.30
2019-05-05T00:47:14.516Z,5.63
2019-05-05T00:50:20.222Z,6.30
2019-05-05T00:53:25.097Z,6.20
2019-05-05T00:56:29.035Z,6.20
2019-05-05T00:59:34.808Z,5.67
2019-05-05T01:02:47.968Z,5.37
2019-05-05T01:06:20.044Z,5.90
2019-05-05T01:09:26.233Z,6.10
2019-05-05T01:12:30.356Z,5.93
2019-05-05T01:15:34.591Z,5.90
2019-05-05T01:18:38.436Z,6.20
2019-05-05T01:21:42.553Z,6.97
2019-05-05T01:24:47.149Z,6.47
2019-05-05T01:27:51.334Z,6.80
2019-05-05T01:30:59.152Z,6.80
2019-05-05T01:34:11.536Z,6.67
2019-05-05T01:37:22.939Z,6.53
2019-05-05T01:40:35.608Z,7.17
2019-05-05T01:43:39.891Z,7.00
2019-05-05T01:46:44.488Z,7.17
2019-05-05T01:49:48.653Z,7.63
2019-05-05T01:52:52.887Z,7.50
2019-05-05T01:55:57.620Z,7.90
2019-05-05T01:59:01.740Z,8.60
2019-05-05T02:02:05.993Z,8.93
2019-05-05T02:05:10.198Z,8.63
2019-05-05T02:08:15.344Z,9.37
2019-05-05T02:11:19.407Z,8.37
2019-05-05T02:14:24.689Z,8.90
2019-05-05T02:17:28.652Z,8.53
2019-05-05T02:21:05.180Z,8.20
2019-05-05T02:24:10.072Z,7.87
2019-05-05T02:27:14.711Z,8.17
2019-05-05T02:30:35.895Z,8.77
2019-05-05T02:33:39.379Z,8.80
2019-05-05T02:36:45.967Z,8.20
2019-05-05T02:39:57.899Z,7.90
2019-05-05T02:42:56.165Z,7.73
2019-05-05T02:46:09.906Z,7.53
2019-05-05T02:49:15.435Z,7.90
2019-05-05T02:52:24.420Z,7.23
2019-05-05T02:55:27.788Z,7.37
2019-05-05T02:58:34.741Z,7.23
2019-05-05T03:01:46.677Z,7.50
2019-05-05T03:04:53.648Z,7.47
2019-05-05T03:07:58.647Z,7.50
2019-05-05T03:11:04.069Z,8.43
2019-05-05T03:14:10.660Z,7.63
2019-05-05T03:17:15.349Z,8.67
2019-05-05T03:20:19.406Z,8.60
2019-05-05T03:23:24.019Z,9.27
2019-05-05T03:26:29.075Z,9.10
2019-05-05T03:29:33.659Z,9.27
2019-05-05T03:32:38.182Z,9.83
2019-05-05T03:35:43.639Z,8.77
2019-05-05T03:38:48.061Z,9.77
2019-05-05T03:42:14.679Z,8.97
2019-05-05T03:45:23.668Z,8.97
2019-05-05T03:48:28.146Z,9.33
2019-05-05T03:51:34.527Z,9.37
2019-05-05T03:54:38.568Z,9.53
2019-05-05T03:57:44.495Z,9.27
2019-05-05T04:01:20.471Z,8.57
2019-05-05T04:04:29.381Z,9.33
2019-05-05T04:07:33.551Z,8.57
2019-05-05T04:10:38.652Z,8.80
2019-05-05T04:13:43.779Z,9.20
2019-05-05T04:17:19.032Z,9.03
2019-05-05T04:20:35.256Z,9.03
2019-05-05T04:23:39.490Z,9.37
2019-05-05T04:26:44.033Z,9.00
2019-05-05T04:29:48.048Z,9.30
2019-05-05T04:32:51.892Z,9.13
2019-05-05T04:35:55.942Z,8.57
2019-05-05T04:39:00.342Z,8.50
2019-05-05T04:42:04.923Z,9.23
2019-05-05T04:45:09.094Z,8.83
2019-05-05T04:48:35.077Z,8.83
2019-05-05T04:51:49.527Z,8.67
2019-05-05T04:54:51.197Z,8.23
2019-05-05T04:57:55.090Z,8.60
2019-05-05T05:00:59.208Z,8.10
2019-05-05T05:04:24.972Z,8.27
2019-05-05T05:07:28.837Z,7.17
2019-05-05T05:10:34.572Z,7.27
2019-05-05T05:13:39.383Z,7.60
2019-05-05T05:16:43.790Z,7.43
2019-05-05T05:19:47.996Z,7.20
2019-05-05T05:22:51.856Z,7.43
2019-05-05T05:25:56.108Z,7.23
2019-05-05T05:29:00.499Z,7.43
2019-05-05T05:32:04.399Z,7.87
2019-05-05T05:35:08.784Z,7.20
2019-05-05T05:38:14.025Z,7.17
2019-05-05T05:41:37.146Z,7.53
2019-05-05T05:45:00.019Z,8.37
2019-05-05T05:48:14.962Z,7.90
2019-05-05T05:51:21.106Z,7.30
2019-05-05T05:54:24.961Z,7.70
2019-05-05T05:57:28.876Z,7.57
2019-05-05T06:00:34.400Z,7.47
2019-05-05T06:03:38.427Z,7.73
2019-05-05T06:06:43.905Z,7.37
2019-05-05T06:09:48.226Z,7.10
2019-05-05T06:12:54.140Z,6.73
2019-05-05T06:15:58.420Z,6.90
2019-05-05T06:19:03.625Z,6.87
2019-05-05T06:22:08.567Z,6.07
2019-05-05T06:25:15.902Z,6.57
2019-05-05T06:28:18.112Z,6.20
2019-05-05T06:31:21.905Z,5.70
2019-05-05T06:34:26.292Z,6.53
2019-05-05T06:37:30.518Z,5.80
2019-05-05T06:40:46.368Z,6.10
2019-05-05T06:44:19.850Z,5.97
2019-05-05T06:47:28.087Z,6.33
2019-05-05T06:50:31.863Z,5.73
2019-05-05T06:53:35.849Z,5.53
2019-05-05T06:56:40.021Z,5.97
2019-05-05T06:59:44.051Z,6.03
2019-05-05T07:02:47.881Z,5.57
2019-05-05T07:05:53.935Z,5.60
2019-05-05T07:08:57.832Z,5.67
2019-05-05T07:12:01.850Z,5.90
2019-05-05T07:15:05.967Z,5.03
2019-05-05T07:18:10.301Z,5.77
2019-05-05T07:21:14.662Z,5.93
2019-05-05T07:24:19.019Z,5.70
2019-05-05T07:27:24.317Z,5.60
2019-05-05T07:30:28.718Z,5.30
2019-05-05T07:33:34.650Z,5.20
2019-05-05T07:36:45.245Z,5.40
2019-05-05T07:39:49.574Z,5.67
2019-05-05T07:42:54.054Z,4.80
2019-05-05T07:45:57.957Z,5.07
2019-05-05T07:49:03.743Z,4.97
2019-05-05T07:52:07.679Z,4.47
2019-05-05T07:55:14.222Z,3.90
2019-05-05T07:58:17.887Z,3.20
2019-05-05T08:01:21.956Z,3.40
2019-05-05T08:04:25.862Z,3.50
2019-05-05T08:07:29.959Z,3.20
2019-05-05T08:10:34.473Z,3.37
2019-05-05T08:13:38.777Z,2.87
2019-05-05T08:17:03.742Z,2.93
2019-05-05T08:20:14.172Z,2.80
2019-05-05T08:23:35.520Z,2.83
2019-05-05T08:26:46.770Z,2.93
2019-05-05T08:29:54.330Z,2.63
2019-05-05T08:32:58.414Z,2.67
2019-05-05T08:36:04.618Z,2.33
2019-05-05T08:39:08.610Z,2.47
2019-05-05T08:42:14.388Z,2.60
2019-05-05T08:45:18.260Z,1.40
2019-05-05T08:48:24.515Z,1.60
2019-05-05T08:51:27.756Z,2.30
2019-05-05T08:54:31.829Z,1.80
2019-05-05T08:57:35.739Z,2.60
2019-05-05T09:00:39.662Z,2.30
2019-05-05T09:03:44.460Z,2.60
2019-05-05T09:06:48.433Z,2.57
2019-05-05T09:09:54.494Z,2.20
2019-05-05T09:12:58.003Z,1.80
2019-05-05T09:16:03.736Z,1.90
2019-05-05T09:19:14.525Z,1.40
2019-05-05T09:22:17.814Z,1.63
2019-05-05T09:25:40.736Z,1.47
2019-05-05T09:29:09.675Z,1.20
2019-05-05T09:32:14.149Z,1.73
2019-05-05T09:35:18.069Z,1.37
2019-05-05T09:38:23.858Z,1.30
2019-05-05T09:41:27.770Z,1.50
2019-05-05T09:44:31.783Z,1.30
2019-05-05T09:47:35.606Z,1.80
2019-05-05T09:50:39.495Z,1.50
2019-05-05T09:53:44.810Z,1.40
2019-05-05T09:56:48.938Z,1.23
2019-05-05T09:59:55.397Z,1.57
2019-05-05T10:02:59.582Z,1.80
2019-05-05T10:06:05.024Z,1.57
2019-05-05T10:09:11.140Z,1.80
2019-05-05T10:12:15.088Z,1.50
2019-05-05T10:15:19.269Z,1.50
2019-05-05T10:18:25.386Z,1.50
2019-05-05T10:21:29.130Z,1.70
2019-05-05T10:24:37.905Z,1.70
2019-05-05T10:27:47.384Z,1.60
2019-05-05T10:30:48.240Z,1.97
2019-05-05T10:33:56.456Z,1.50
2019-05-05T10:37:00.322Z,2.30
2019-05-05T10:40:05.460Z,4.60
2019-05-05T10:43:09.321Z,3.83
2019-05-05T10:46:14.378Z,2.67
2019-05-05T10:49:19.197Z,2.83
2019-05-05T10:52:23.008Z,1.40
2019-05-05T10:55:26.913Z,1.50
2019-05-05T10:58:30.726Z,2.10
2019-05-05T11:01:34.832Z,1.40
2019-05-05T11:04:38.741Z,2.87
2019-05-05T11:07:43.132Z,2.30
2019-05-05T11:10:47.189Z,1.90
2019-05-05T11:13:51.070Z,2.03
2019-05-05T11:16:55.353Z,3.13
2019-05-05T11:19:59.290Z,2.10
2019-05-05T11:23:04.857Z,2.10
2019-05-05T11:26:08.722Z,1.80
2019-05-05T11:29:13.558Z,1.97
2019-05-05T11:32:36.862Z,1.90
2019-05-05T11:35:56.770Z,1.70
2019-05-05T11:39:00.880Z,1.70
2019-05-05T11:42:04.758Z,1.70
2019-05-05T11:45:08.735Z,2.03
2019-05-05T11:48:14.573Z,2.00
2019-05-05T11:51:18.535Z,2.20
2019-05-05T11:54:24.338Z,1.87
2019-05-05T11:57:27.910Z,1.57
2019-05-05T12:00:31.835Z,1.90
2019-05-05T12:03:37.811Z,2.13
2019-05-05T12:06:41.511Z,1.87
2019-05-05T12:09:54.860Z,1.90
2019-05-05T12:12:59.191Z,1.90
2019-05-05T12:16:05.214Z,2.10
2019-05-05T12:19:13.763Z,1.93
2019-05-05T12:22:17.727Z,2.07
2019-05-05T12:25:39.002Z,2.30
2019-05-05T12:28:49.517Z,1.80
2019-05-05T12:31:53.843Z,1.80
2019-05-05T12:34:58.109Z,2.00
2019-05-05T12:38:02.251Z,2.00
2019-05-05T12:41:06.191Z,1.60
2019-05-05T12:44:14.254Z,2.00
2019-05-05T12:47:29.987Z,1.57
2019-05-05T12:50:34.102Z,1.90
2019-05-05T12:53:38.014Z,1.67
2019-05-05T12:56:43.963Z,1.97
2019-05-05T12:59:47.717Z,1.93
2019-05-05T13:02:53.694Z,1.80
2019-05-05T13:05:57.291Z,1.70
2019-05-05T13:09:01.428Z,1.60
2019-05-05T13:12:05.629Z,2.10
2019-05-05T13:15:09.702Z,2.17
2019-05-05T13:18:14.048Z,1.70
2019-05-05T13:21:27.857Z,1.73
2019-05-05T13:24:54.067Z,1.77
2019-05-05T13:27:58.298Z,1.50
2019-05-05T13:31:02.180Z,1.53
2019-05-05T13:34:06.500Z,1.47
2019-05-05T13:37:10.662Z,1.80
2019-05-05T13:40:14.659Z,1.50
2019-05-05T13:43:18.571Z,1.60
2019-05-05T13:46:30.039Z,1.50
2019-05-05T13:49:38.208Z,2.10
2019-05-05T13:52:44.201Z,1.73
2019-05-05T13:55:48.099Z,1.50
2019-05-05T13:58:52.205Z,1.70
2019-05-05T14:01:56.463Z,2.90
2019-05-05T14:05:00.292Z,1.70
2019-05-05T14:08:04.366Z,1.77
2019-05-05T14:11:08.607Z,1.60
2019-05-05T14:14:13.793Z,1.40
2019-05-05T14:17:18.507Z,1.57
2019-05-05T14:20:23.979Z,1.60
2019-05-05T14:23:29.206Z,1.30
2019-05-05T14:26:35.322Z,1.57
2019-05-05T14:29:53.098Z,1.30
2019-05-05T14:32:57.172Z,1.40
2019-05-05T14:36:19.000Z,1.40
2019-05-05T14:39:23.914Z,1.27
2019-05-05T14:42:28.009Z,1.63
2019-05-05T14:45:34.001Z,1.70
2019-05-05T14:48:38.033Z,1.50
2019-05-05T14:51:41.933Z,1.37
2019-05-05T14:54:46.083Z,1.60
2019-05-05T14:57:50.614Z,1.67
2019-05-05T15:00:54.750Z,1.80
2019-05-05T15:03:58.838Z,1.23
2019-05-05T15:07:10.803Z,1.43
2019-05-05T15:10:34.340Z,1.40
2019-05-05T15:13:38.443Z,1.63
2019-05-05T15:16:43.757Z,1.83
2019-05-05T15:19:47.675Z,1.67
2019-05-05T15:22:51.465Z,1.47
2019-05-05T15:25:55.597Z,1.63
2019-05-05T15:29:01.703Z,1.70
2019-05-05T15:32:05.986Z,1.70
2019-05-05T15:35:10.367Z,1.57
2019-05-05T15:38:14.342Z,1.70
2019-05-05T15:41:18.247Z,1.63
2019-05-05T15:44:24.137Z,1.40
2019-05-05T15:47:28.680Z,1.50
2019-05-05T15:50:32.903Z,1.60
2019-05-05T15:53:36.708Z,1.20
2019-05-05T15:56:41.068Z,1.10
2019-05-05T15:59:44.938Z,1.20
2019-05-05T16:02:48.839Z,1.10
2019-05-05T16:05:54.343Z,1.30
2019-05-05T16:08:58.355Z,1.47
2019-05-05T16:12:03.776Z,1.10
2019-05-05T16:15:21.904Z,1.47
2019-05-05T16:18:33.808Z,1.20
2019-05-05T16:21:47.981Z,1.50
2019-05-05T16:25:13.803Z,0.93
2019-05-05T16:28:17.398Z,1.30
2019-05-05T16:31:23.604Z,1.30
2019-05-05T16:34:27.844Z,1.20
2019-05-05T16:37:33.509Z,1.00
2019-05-05T16:40:37.467Z,1.20
2019-05-05T16:43:41.431Z,1.20
2019-05-05T16:46:45.309Z,1.33
2019-05-05T16:49:49.539Z,1.37
2019-05-05T16:52:59.317Z,1.40
2019-05-05T16:56:04.533Z,1.50
2019-05-05T16:59:08.646Z,1.37
2019-05-05T17:02:13.929Z,1.40
2019-05-05T17:05:18.176Z,1.47
2019-05-05T17:08:24.449Z,1.47
2019-05-05T17:11:28.437Z,1.57
2019-05-05T17:14:40.401Z,1.53
2019-05-05T17:18:15.359Z,1.30
2019-05-05T17:21:22.127Z,1.10
2019-05-05T17:24:26.048Z,1.50
2019-05-05T17:27:30.691Z,1.30
2019-05-05T17:30:34.656Z,1.73
2019-05-05T17:33:38.660Z,1.50
2019-05-05T17:36:42.727Z,1.30
2019-05-05T17:39:55.388Z,1.60
2019-05-05T17:43:25.179Z,1.30
2019-05-05T17:46:26.957Z,1.43
2019-05-05T17:49:50.337Z,1.70
2019-05-05T17:53:11.548Z,1.67
2019-05-05T17:56:15.688Z,1.73
2019-05-05T17:59:19.568Z,1.40
2019-05-05T18:02:24.125Z,1.60
2019-05-05T18:05:46.222Z,1.67
2019-05-05T18:08:53.968Z,1.90
2019-05-05T18:12:26.513Z,1.90
2019-05-05T18:15:49.671Z,1.83
2019-05-05T18:18:54.849Z,1.70
2019-05-05T18:21:59.351Z,1.63
2019-05-05T18:25:03.809Z,1.60
2019-05-05T18:28:17.073Z,1.60
2019-05-05T18:31:13.925Z,2.20
2019-05-05T18:34:17.848Z,1.90
2019-05-05T18:37:24.040Z,2.30
2019-05-05T18:40:27.820Z,2.23
2019-05-05T18:43:38.929Z,1.70
2019-05-05T18:46:43.573Z,2.30
2019-05-05T18:49:48.081Z,2.20
2019-05-05T18:52:53.877Z,2.60
2019-05-05T18:55:57.672Z,2.10
2019-05-05T18:59:04.625Z,2.33
2019-05-05T19:02:17.346Z,2.50
2019-05-05T19:05:44.076Z,3.13
2019-05-05T19:08:54.459Z,3.47
2019-05-05T19:11:56.891Z,2.07
2019-05-05T19:15:01.212Z,1.70
2019-05-05T19:18:06.598Z,1.90
2019-05-05T19:21:25.437Z,3.30
2019-05-05T19:24:30.628Z,2.10
2019-05-05T19:27:34.790Z,1.80
2019-05-05T19:30:39.050Z,1.50
2019-05-05T19:33:43.026Z,1.90
2019-05-05T19:36:47.331Z,1.97
2019-05-05T19:39:51.449Z,2.27
2019-05-05T19:42:55.270Z,2.27
2019-05-05T19:45:59.510Z,2.37
2019-05-05T19:49:16.777Z,2.73
2019-05-05T19:52:21.133Z,4.03
2019-05-05T19:55:25.222Z,5.27
2019-05-05T19:58:29.201Z,5.70
2019-05-05T20:01:37.521Z,3.50
2019-05-05T20:04:38.765Z,2.40
2019-05-05T20:07:44.050Z,1.97
2019-05-05T20:10:47.868Z,1.90
2019-05-05T20:14:04.736Z,1.67
2019-05-05T20:17:15.822Z,2.00
2019-05-05T20:20:19.832Z,3.20
2019-05-05T20:23:24.412Z,2.30
2019-05-05T20:26:28.321Z,2.20
2019-05-05T20:29:35.048Z,2.27
2019-05-05T20:32:59.888Z,2.20
2019-05-05T20:36:14.512Z,2.27
2019-05-05T20:39:18.525Z,2.33
2019-05-05T20:42:22.686Z,2.10
2019-05-05T20:45:28.766Z,2.70
2019-05-05T20:48:35.091Z,2.53
2019-05-05T20:51:38.954Z,2.13
2019-05-05T20:54:44.088Z,2.23
2019-05-05T20:57:49.230Z,2.17
2019-05-05T21:00:54.911Z,2.30
2019-05-05T21:03:58.738Z,2.17
2019-05-05T21:07:04.402Z,2.73
2019-05-05T21:10:08.629Z,2.87
2019-05-05T21:13:14.370Z,2.77
2019-05-05T21:16:18.169Z,3.10
2019-05-05T21:19:22.225Z,3.30
2019-05-05T21:22:31.298Z,2.63
2019-05-05T21:25:37.326Z,3.00
2019-05-05T21:28:41.286Z,2.80
2019-05-05T21:31:45.326Z,2.60
2019-05-05T21:34:49.269Z,2.73
2019-05-05T21:37:54.362Z,2.10
2019-05-05T21:40:58.995Z,2.40
2019-05-05T21:44:03.754Z,2.30
2019-05-05T21:47:07.981Z,2.27
2019-05-05T21:50:14.472Z,2.53
2019-05-05T21:53:24.725Z,2.70
2019-05-05T21:56:37.188Z,2.70
2019-05-05T21:59:55.261Z,2.73
2019-05-05T22:02:47.936Z,2.73
2019-05-05T22:05:53.871Z,2.80
2019-05-05T22:08:57.871Z,3.10
2019-05-05T22:12:04.061Z,2.80
2019-05-05T22:15:07.901Z,2.60
2019-05-05T22:18:14.314Z,3.00
2019-05-05T22:21:35.687Z,3.10
2019-05-05T22:24:38.192Z,2.93
2019-05-05T22:27:44.006Z,3.17
2019-05-05T22:30:48.004Z,3.10
2019-05-05T22:33:51.923Z,3.37
2019-05-05T22:36:55.968Z,2.87
2019-05-05T22:40:00.291Z,3.20
2019-05-05T22:43:04.660Z,3.20
2019-05-05T22:46:08.495Z,3.17
2019-05-05T22:49:14.573Z,3.20
2019-05-05T22:52:18.490Z,3.07
2019-05-05T22:55:24.580Z,3.07
2019-05-05T22:58:28.717Z,3.20
2019-05-05T23:01:32.872Z,2.87
2019-05-05T23:04:47.712Z,3.40
2019-05-05T23:07:51.979Z,3.00
2019-05-05T23:10:55.807Z,3.07
2019-05-05T23:14:17.872Z,3.23
2019-05-05T23:17:40.815Z,3.57
2019-05-05T23:21:08.698Z,3.13
2019-05-05T23:24:34.509Z,3.60
2019-05-05T23:27:47.866Z,3.43
2019-05-05T23:30:54.562Z,3.60
2019-05-05T23:33:58.065Z,3.53
2019-05-05T23:37:04.227Z,3.57
2019-05-05T23:40:08.605Z,3.40
2019-05-05T23:43:13.954Z,3.60
2019-05-05T23:46:17.989Z,3.47
2019-05-05T23:49:24.027Z,3.77
2019-05-05T23:52:27.815Z,3.73
2019-05-05T23:55:31.887Z,3.70
2019-05-05T23:58:35.783Z,3.83
